sensor_id;sensor_type;location;lat;lon;timestamp;P1;durP1;ratioP1;P2;durP2;ratioP2
61897;SDS011;47850;50.274;18.908;2023-03-03T00:01:17;111.10;;;44.90;;
61897;SDS011;47850;50.274;18.908;2023-03-03T00:03:45;115.80;;;45.70;;
61897;SDS011;47850;50.274;18.908;2023-03-03T00:06:13;117.20;;;44.40;;
61897;SDS011;47850;50.274;18.908;2023-03-03T00:08:41;89.90;;;36.10;;
61897;SDS011;47850;50.274;18.908;2023-03-03T00:11:09;110.60;;;43.00;;
61897;SDS011;47850;50.274;18.908;2023-03-03T00:13:47;127.50;;;47.20;;
61897;SDS011;47850;50.274;18.908;2023-03-03T00:16:21;126.60;;;47.30;;
61897;SDS011;47850;50.274;18.908;2023-03-03T00:18:52;129.60;;;45.00;;
61897;SDS011;47850;50.274;18.908;2023-03-03T00:21:23;120.80;;;42.70;;
61897;SDS011;47850;50.274;18.908;2023-03-03T00:23:52;129.80;;;50.20;;
61897;SDS011;47850;50.274;18.908;2023-03-03T00:26:22;132.00;;;46.70;;
61897;SDS011;47850;50.274;18.908;2023-03-03T00:29:00;105.30;;;42.30;;
61897;SDS011;47850;50.274;18.908;2023-03-03T00:31:32;126.20;;;46.80;;
61897;SDS011;47850;50.274;18.908;2023-03-03T00:36:54;110.00;;;40.80;;
61897;SDS011;47850;50.274;18.908;2023-03-03T00:39:30;130.40;;;44.10;;
61897;SDS011;47850;50.274;18.908;2023-03-03T00:41:58;121.10;;;45.60;;
61897;SDS011;47850;50.274;18.908;2023-03-03T00:49:54;107.20;;;41.40;;
61897;SDS011;47850;50.274;18.908;2023-03-03T00:55:37;136.00;;;50.80;;
61897;SDS011;47850;50.274;18.908;2023-03-03T00:58:07;125.80;;;45.70;;
61897;SDS011;47850;50.274;18.908;2023-03-03T01:00:35;121.50;;;44.90;;
61897;SDS011;47850;50.274;18.908;2023-03-03T01:03:12;135.20;;;52.20;;
61897;SDS011;47850;50.274;18.908;2023-03-03T01:05:43;130.80;;;49.20;;
61897;SDS011;47850;50.274;18.908;2023-03-03T01:08:11;119.30;;;44.20;;
61897;SDS011;47850;50.274;18.908;2023-03-03T01:10:41;84.90;;;32.80;;
61897;SDS011;47850;50.274;18.908;2023-03-03T01:13:20;103.10;;;40.60;;
61897;SDS011;47850;50.274;18.908;2023-03-03T01:15:50;115.40;;;45.90;;
61897;SDS011;47850;50.274;18.908;2023-03-03T01:18:18;113.80;;;46.70;;
61897;SDS011;47850;50.274;18.908;2023-03-03T01:20:46;133.30;;;51.40;;
61897;SDS011;47850;50.274;18.908;2023-03-03T01:23:14;128.30;;;49.00;;
61897;SDS011;47850;50.274;18.908;2023-03-03T01:25:42;132.80;;;50.40;;
61897;SDS011;47850;50.274;18.908;2023-03-03T01:28:09;99.60;;;40.20;;
61897;SDS011;47850;50.274;18.908;2023-03-03T01:30:37;97.80;;;41.90;;
61897;SDS011;47850;50.274;18.908;2023-03-03T01:33:05;112.70;;;46.00;;
61897;SDS011;47850;50.274;18.908;2023-03-03T01:35:33;138.10;;;53.20;;
61897;SDS011;47850;50.274;18.908;2023-03-03T01:38:02;135.40;;;56.20;;
61897;SDS011;47850;50.274;18.908;2023-03-03T01:40:30;128.00;;;52.40;;
61897;SDS011;47850;50.274;18.908;2023-03-03T01:42:59;137.90;;;55.00;;
61897;SDS011;47850;50.274;18.908;2023-03-03T01:45:29;119.40;;;48.50;;
61897;SDS011;47850;50.274;18.908;2023-03-03T01:48:17;98.60;;;40.50;;
61897;SDS011;47850;50.274;18.908;2023-03-03T01:53:27;111.30;;;45.50;;
61897;SDS011;47850;50.274;18.908;2023-03-03T01:56:01;117.90;;;46.80;;
61897;SDS011;47850;50.274;18.908;2023-03-03T01:58:33;137.10;;;58.90;;
61897;SDS011;47850;50.274;18.908;2023-03-03T02:01:03;147.30;;;55.70;;
61897;SDS011;47850;50.274;18.908;2023-03-03T02:03:35;123.80;;;51.30;;
61897;SDS011;47850;50.274;18.908;2023-03-03T02:06:04;109.50;;;42.40;;
61897;SDS011;47850;50.274;18.908;2023-03-03T02:08:38;102.50;;;39.90;;
61897;SDS011;47850;50.274;18.908;2023-03-03T02:11:20;118.00;;;46.40;;
61897;SDS011;47850;50.274;18.908;2023-03-03T02:13:49;126.80;;;50.10;;
61897;SDS011;47850;50.274;18.908;2023-03-03T02:16:17;127.30;;;52.20;;
61897;SDS011;47850;50.274;18.908;2023-03-03T02:18:45;122.60;;;51.90;;
61897;SDS011;47850;50.274;18.908;2023-03-03T02:21:14;143.80;;;55.50;;
61897;SDS011;47850;50.274;18.908;2023-03-03T02:24:00;138.40;;;54.80;;
61897;SDS011;47850;50.274;18.908;2023-03-03T02:26:36;139.60;;;55.70;;
61897;SDS011;47850;50.274;18.908;2023-03-03T02:29:07;127.50;;;50.90;;
61897;SDS011;47850;50.274;18.908;2023-03-03T02:31:36;125.10;;;50.20;;
61897;SDS011;47850;50.274;18.908;2023-03-03T02:34:05;137.50;;;54.30;;
61897;SDS011;47850;50.274;18.908;2023-03-03T02:36:34;149.80;;;56.80;;
61897;SDS011;47850;50.274;18.908;2023-03-03T02:41:57;114.60;;;42.80;;
61897;SDS011;47850;50.274;18.908;2023-03-03T02:44:31;127.10;;;47.90;;
61897;SDS011;47850;50.274;18.908;2023-03-03T02:46:59;97.50;;;39.80;;
61897;SDS011;47850;50.274;18.908;2023-03-03T02:49:31;125.50;;;46.80;;
61897;SDS011;47850;50.274;18.908;2023-03-03T02:52:02;151.50;;;57.20;;
61897;SDS011;47850;50.274;18.908;2023-03-03T02:54:33;153.20;;;56.20;;
61897;SDS011;47850;50.274;18.908;2023-03-03T02:57:01;152.90;;;55.40;;
61897;SDS011;47850;50.274;18.908;2023-03-03T02:59:30;150.70;;;57.80;;
61897;SDS011;47850;50.274;18.908;2023-03-03T03:01:58;164.90;;;61.00;;
61897;SDS011;47850;50.274;18.908;2023-03-03T03:04:26;150.00;;;56.80;;
61897;SDS011;47850;50.274;18.908;2023-03-03T03:06:55;161.90;;;59.90;;
61897;SDS011;47850;50.274;18.908;2023-03-03T03:09:23;152.10;;;58.10;;
61897;SDS011;47850;50.274;18.908;2023-03-03T03:11:52;131.30;;;50.40;;
61897;SDS011;47850;50.274;18.908;2023-03-03T03:14:20;146.80;;;55.60;;
61897;SDS011;47850;50.274;18.908;2023-03-03T03:16:48;152.00;;;54.60;;
61897;SDS011;47850;50.274;18.908;2023-03-03T03:19:15;128.80;;;49.20;;
61897;SDS011;47850;50.274;18.908;2023-03-03T03:21:43;148.90;;;55.70;;
61897;SDS011;47850;50.274;18.908;2023-03-03T03:24:11;139.00;;;54.90;;
61897;SDS011;47850;50.274;18.908;2023-03-03T03:26:39;138.00;;;54.30;;
61897;SDS011;47850;50.274;18.908;2023-03-03T03:29:06;135.70;;;51.00;;
61897;SDS011;47850;50.274;18.908;2023-03-03T03:31:34;128.90;;;49.30;;
61897;SDS011;47850;50.274;18.908;2023-03-03T03:34:02;123.80;;;49.40;;
61897;SDS011;47850;50.274;18.908;2023-03-03T03:36:30;139.30;;;53.50;;
61897;SDS011;47850;50.274;18.908;2023-03-03T03:38:58;183.90;;;69.10;;
61897;SDS011;47850;50.274;18.908;2023-03-03T03:41:29;150.60;;;58.80;;
61897;SDS011;47850;50.274;18.908;2023-03-03T03:43:56;116.20;;;43.70;;
61897;SDS011;47850;50.274;18.908;2023-03-03T03:46:24;125.80;;;48.20;;
61897;SDS011;47850;50.274;18.908;2023-03-03T03:48:52;123.60;;;48.40;;
61897;SDS011;47850;50.274;18.908;2023-03-03T03:51:20;142.60;;;57.50;;
61897;SDS011;47850;50.274;18.908;2023-03-03T03:53:47;155.70;;;61.90;;
61897;SDS011;47850;50.274;18.908;2023-03-03T03:56:15;159.00;;;62.70;;
61897;SDS011;47850;50.274;18.908;2023-03-03T03:58:43;163.10;;;61.50;;
61897;SDS011;47850;50.274;18.908;2023-03-03T04:01:11;165.10;;;64.90;;
61897;SDS011;47850;50.274;18.908;2023-03-03T04:03:39;159.40;;;63.10;;
61897;SDS011;47850;50.274;18.908;2023-03-03T04:06:07;157.50;;;58.80;;
61897;SDS011;47850;50.274;18.908;2023-03-03T04:08:35;160.60;;;62.80;;
61897;SDS011;47850;50.274;18.908;2023-03-03T04:11:02;154.80;;;59.70;;
61897;SDS011;47850;50.274;18.908;2023-03-03T04:13:30;170.40;;;68.20;;
61897;SDS011;47850;50.274;18.908;2023-03-03T04:16:01;171.90;;;67.70;;
61897;SDS011;47850;50.274;18.908;2023-03-03T04:18:29;126.50;;;48.10;;
61897;SDS011;47850;50.274;18.908;2023-03-03T04:20:57;145.10;;;55.20;;
61897;SDS011;47850;50.274;18.908;2023-03-03T04:23:24;154.30;;;58.00;;
61897;SDS011;47850;50.274;18.908;2023-03-03T04:25:52;162.60;;;58.80;;
61897;SDS011;47850;50.274;18.908;2023-03-03T04:28:22;141.70;;;52.20;;
61897;SDS011;47850;50.274;18.908;2023-03-03T04:30:51;129.50;;;51.20;;
61897;SDS011;47850;50.274;18.908;2023-03-03T04:33:19;132.80;;;50.10;;
61897;SDS011;47850;50.274;18.908;2023-03-03T04:35:47;134.30;;;53.10;;
61897;SDS011;47850;50.274;18.908;2023-03-03T04:38:15;142.80;;;56.00;;
61897;SDS011;47850;50.274;18.908;2023-03-03T04:40:42;140.50;;;55.20;;
61897;SDS011;47850;50.274;18.908;2023-03-03T04:43:10;158.20;;;58.90;;
61897;SDS011;47850;50.274;18.908;2023-03-03T04:45:38;156.60;;;58.80;;
61897;SDS011;47850;50.274;18.908;2023-03-03T04:48:06;160.40;;;59.70;;
61897;SDS011;47850;50.274;18.908;2023-03-03T04:50:34;124.20;;;47.60;;
61897;SDS011;47850;50.274;18.908;2023-03-03T04:53:01;116.20;;;45.50;;
61897;SDS011;47850;50.274;18.908;2023-03-03T04:55:29;126.50;;;45.20;;
61897;SDS011;47850;50.274;18.908;2023-03-03T04:57:57;142.80;;;51.40;;
61897;SDS011;47850;50.274;18.908;2023-03-03T05:00:25;141.70;;;54.80;;
61897;SDS011;47850;50.274;18.908;2023-03-03T05:02:53;146.60;;;54.80;;
61897;SDS011;47850;50.274;18.908;2023-03-03T05:05:21;164.80;;;61.20;;
61897;SDS011;47850;50.274;18.908;2023-03-03T05:07:49;194.40;;;68.50;;
61897;SDS011;47850;50.274;18.908;2023-03-03T05:10:16;214.10;;;75.80;;
61897;SDS011;47850;50.274;18.908;2023-03-03T05:12:44;219.20;;;77.50;;
61897;SDS011;47850;50.274;18.908;2023-03-03T05:15:12;189.90;;;69.20;;
61897;SDS011;47850;50.274;18.908;2023-03-03T05:17:40;206.20;;;85.50;;
61897;SDS011;47850;50.274;18.908;2023-03-03T05:20:08;186.10;;;69.00;;
61897;SDS011;47850;50.274;18.908;2023-03-03T05:22:37;161.60;;;62.40;;
61897;SDS011;47850;50.274;18.908;2023-03-03T05:25:05;164.40;;;66.40;;
61897;SDS011;47850;50.274;18.908;2023-03-03T05:27:33;183.10;;;69.80;;
61897;SDS011;47850;50.274;18.908;2023-03-03T05:30:01;191.00;;;72.20;;
61897;SDS011;47850;50.274;18.908;2023-03-03T05:32:29;179.40;;;69.90;;
61897;SDS011;47850;50.274;18.908;2023-03-03T05:34:56;189.20;;;71.00;;
61897;SDS011;47850;50.274;18.908;2023-03-03T05:37:26;186.50;;;72.00;;
61897;SDS011;47850;50.274;18.908;2023-03-03T05:39:53;184.30;;;70.70;;
61897;SDS011;47850;50.274;18.908;2023-03-03T05:42:21;169.10;;;65.90;;
61897;SDS011;47850;50.274;18.908;2023-03-03T05:44:49;182.80;;;68.90;;
61897;SDS011;47850;50.274;18.908;2023-03-03T05:47:17;158.30;;;60.20;;
61897;SDS011;47850;50.274;18.908;2023-03-03T05:49:45;150.40;;;57.80;;
61897;SDS011;47850;50.274;18.908;2023-03-03T05:52:13;161.10;;;59.60;;
61897;SDS011;47850;50.274;18.908;2023-03-03T05:54:40;159.80;;;58.70;;
61897;SDS011;47850;50.274;18.908;2023-03-03T05:57:08;165.70;;;58.00;;
61897;SDS011;47850;50.274;18.908;2023-03-03T05:59:36;155.00;;;59.50;;
61897;SDS011;47850;50.274;18.908;2023-03-03T06:02:04;156.00;;;56.60;;
61897;SDS011;47850;50.274;18.908;2023-03-03T06:04:32;168.70;;;61.90;;
61897;SDS011;47850;50.274;18.908;2023-03-03T06:07:00;171.30;;;60.80;;
61897;SDS011;47850;50.274;18.908;2023-03-03T06:09:28;172.50;;;59.60;;
61897;SDS011;47850;50.274;18.908;2023-03-03T06:11:56;222.00;;;75.70;;
61897;SDS011;47850;50.274;18.908;2023-03-03T06:14:24;173.20;;;62.20;;
61897;SDS011;47850;50.274;18.908;2023-03-03T06:16:51;170.30;;;59.20;;
61897;SDS011;47850;50.274;18.908;2023-03-03T06:19:19;177.10;;;60.50;;
61897;SDS011;47850;50.274;18.908;2023-03-03T06:21:47;157.60;;;58.90;;
61897;SDS011;47850;50.274;18.908;2023-03-03T06:24:15;94.10;;;35.80;;
61897;SDS011;47850;50.274;18.908;2023-03-03T06:26:42;152.30;;;48.20;;
61897;SDS011;47850;50.274;18.908;2023-03-03T06:29:10;138.20;;;47.00;;
61897;SDS011;47850;50.274;18.908;2023-03-03T06:31:38;154.00;;;51.90;;
61897;SDS011;47850;50.274;18.908;2023-03-03T06:34:06;151.40;;;52.30;;
61897;SDS011;47850;50.274;18.908;2023-03-03T06:36:34;158.10;;;53.10;;
61897;SDS011;47850;50.274;18.908;2023-03-03T06:39:02;164.00;;;55.50;;
61897;SDS011;47850;50.274;18.908;2023-03-03T06:41:30;199.30;;;71.10;;
61897;SDS011;47850;50.274;18.908;2023-03-03T06:43:58;163.10;;;61.70;;
61897;SDS011;47850;50.274;18.908;2023-03-03T06:46:26;150.90;;;53.80;;
61897;SDS011;47850;50.274;18.908;2023-03-03T06:48:55;121.40;;;45.00;;
61897;SDS011;47850;50.274;18.908;2023-03-03T06:51:24;156.40;;;56.40;;
61897;SDS011;47850;50.274;18.908;2023-03-03T06:53:57;150.00;;;54.00;;
61897;SDS011;47850;50.274;18.908;2023-03-03T06:56:28;120.40;;;43.00;;
61897;SDS011;47850;50.274;18.908;2023-03-03T06:59:00;116.10;;;42.90;;
61897;SDS011;47850;50.274;18.908;2023-03-03T07:01:32;124.60;;;42.10;;
61897;SDS011;47850;50.274;18.908;2023-03-03T07:04:13;111.90;;;40.10;;
61897;SDS011;47850;50.274;18.908;2023-03-03T07:06:56;117.00;;;42.10;;
61897;SDS011;47850;50.274;18.908;2023-03-03T07:12:01;62.20;;;26.10;;
61897;SDS011;47850;50.274;18.908;2023-03-03T07:14:44;106.50;;;37.40;;
61897;SDS011;47850;50.274;18.908;2023-03-03T07:17:15;105.80;;;37.40;;
61897;SDS011;47850;50.274;18.908;2023-03-03T07:19:47;98.20;;;35.20;;
61897;SDS011;47850;50.274;18.908;2023-03-03T07:22:17;86.20;;;31.90;;
61897;SDS011;47850;50.274;18.908;2023-03-03T07:24:51;89.20;;;32.90;;
61897;SDS011;47850;50.274;18.908;2023-03-03T07:29:54;78.40;;;27.10;;
61897;SDS011;47850;50.274;18.908;2023-03-03T07:32:46;88.00;;;28.40;;
61897;SDS011;47850;50.274;18.908;2023-03-03T07:37:58;83.90;;;30.10;;
61897;SDS011;47850;50.274;18.908;2023-03-03T07:46:40;71.20;;;27.00;;
61897;SDS011;47850;50.274;18.908;2023-03-03T07:52:01;63.20;;;23.80;;
61897;SDS011;47850;50.274;18.908;2023-03-03T07:54:45;60.90;;;23.30;;
61897;SDS011;47850;50.274;18.908;2023-03-03T07:59:55;54.80;;;20.60;;
61897;SDS011;47850;50.274;18.908;2023-03-03T08:15:48;48.40;;;17.60;;
61897;SDS011;47850;50.274;18.908;2023-03-03T08:18:22;58.40;;;21.70;;
61897;SDS011;47850;50.274;18.908;2023-03-03T08:21:25;62.80;;;23.00;;
61897;SDS011;47850;50.274;18.908;2023-03-03T08:26:22;62.90;;;21.80;;
61897;SDS011;47850;50.274;18.908;2023-03-03T08:28:51;64.20;;;20.60;;
61897;SDS011;47850;50.274;18.908;2023-03-03T08:31:20;72.80;;;25.80;;
61897;SDS011;47850;50.274;18.908;2023-03-03T08:33:48;74.40;;;25.10;;
61897;SDS011;47850;50.274;18.908;2023-03-03T08:36:15;78.30;;;26.20;;
61897;SDS011;47850;50.274;18.908;2023-03-03T08:38:43;69.60;;;24.20;;
61897;SDS011;47850;50.274;18.908;2023-03-03T08:41:11;71.20;;;24.40;;
61897;SDS011;47850;50.274;18.908;2023-03-03T08:43:39;51.40;;;18.30;;
61897;SDS011;47850;50.274;18.908;2023-03-03T08:46:07;68.70;;;24.20;;
61897;SDS011;47850;50.274;18.908;2023-03-03T08:48:37;57.40;;;20.50;;
61897;SDS011;47850;50.274;18.908;2023-03-03T08:51:05;65.50;;;23.50;;
61897;SDS011;47850;50.274;18.908;2023-03-03T08:53:33;65.70;;;21.50;;
61897;SDS011;47850;50.274;18.908;2023-03-03T08:56:03;68.20;;;23.10;;
61897;SDS011;47850;50.274;18.908;2023-03-03T08:58:32;52.80;;;18.40;;
61897;SDS011;47850;50.274;18.908;2023-03-03T09:00:59;64.80;;;24.00;;
61897;SDS011;47850;50.274;18.908;2023-03-03T09:03:28;64.00;;;24.00;;
61897;SDS011;47850;50.274;18.908;2023-03-03T09:05:56;101.50;;;30.70;;
61897;SDS011;47850;50.274;18.908;2023-03-03T09:08:24;59.40;;;22.10;;
61897;SDS011;47850;50.274;18.908;2023-03-03T09:10:51;61.80;;;22.30;;
61897;SDS011;47850;50.274;18.908;2023-03-03T09:13:19;61.70;;;21.30;;
61897;SDS011;47850;50.274;18.908;2023-03-03T09:15:47;61.60;;;20.70;;
61897;SDS011;47850;50.274;18.908;2023-03-03T09:18:20;50.30;;;19.60;;
61897;SDS011;47850;50.274;18.908;2023-03-03T09:20:55;63.20;;;21.40;;
61897;SDS011;47850;50.274;18.908;2023-03-03T09:23:36;43.00;;;16.40;;
61897;SDS011;47850;50.274;18.908;2023-03-03T09:28:48;47.20;;;16.60;;
61897;SDS011;47850;50.274;18.908;2023-03-03T09:31:21;44.40;;;17.30;;
61897;SDS011;47850;50.274;18.908;2023-03-03T09:33:51;53.40;;;18.70;;
61897;SDS011;47850;50.274;18.908;2023-03-03T09:36:25;46.10;;;16.20;;
61897;SDS011;47850;50.274;18.908;2023-03-03T09:55:58;52.00;;;18.80;;
61897;SDS011;47850;50.274;18.908;2023-03-03T10:12:38;57.50;;;21.50;;
61897;SDS011;47850;50.274;18.908;2023-03-03T10:15:25;48.50;;;19.00;;
61897;SDS011;47850;50.274;18.908;2023-03-03T10:21:09;55.30;;;18.50;;
61897;SDS011;47850;50.274;18.908;2023-03-03T10:26:54;58.30;;;20.60;;
61897;SDS011;47850;50.274;18.908;2023-03-03T10:34:53;46.50;;;17.60;;
61897;SDS011;47850;50.274;18.908;2023-03-03T10:42:41;43.70;;;16.40;;
61897;SDS011;47850;50.274;18.908;2023-03-03T10:47:59;30.70;;;12.30;;
61897;SDS011;47850;50.274;18.908;2023-03-03T10:53:49;32.70;;;11.20;;
61897;SDS011;47850;50.274;18.908;2023-03-03T10:59:12;36.60;;;14.00;;
61897;SDS011;47850;50.274;18.908;2023-03-03T11:02:02;30.50;;;11.60;;
61897;SDS011;47850;50.274;18.908;2023-03-03T11:04:53;36.20;;;13.20;;
61897;SDS011;47850;50.274;18.908;2023-03-03T11:10:29;33.70;;;12.60;;
61897;SDS011;47850;50.274;18.908;2023-03-03T11:13:15;25.80;;;10.60;;
61897;SDS011;47850;50.274;18.908;2023-03-03T11:24:31;22.10;;;8.30;;
61897;SDS011;47850;50.274;18.908;2023-03-03T11:35:28;31.90;;;11.80;;
61897;SDS011;47850;50.274;18.908;2023-03-03T11:40:54;22.30;;;9.10;;
61897;SDS011;47850;50.274;18.908;2023-03-03T11:45:57;42.90;;;16.00;;
61897;SDS011;47850;50.274;18.908;2023-03-03T11:51:33;41.80;;;16.70;;
61897;SDS011;47850;50.274;18.908;2023-03-03T11:54:06;40.80;;;16.10;;
61897;SDS011;47850;50.274;18.908;2023-03-03T11:56:44;34.70;;;13.50;;
61897;SDS011;47850;50.274;18.908;2023-03-03T12:05:37;40.60;;;15.60;;
61897;SDS011;47850;50.274;18.908;2023-03-03T12:28:17;32.50;;;12.70;;
61897;SDS011;47850;50.274;18.908;2023-03-03T12:34:17;36.20;;;14.90;;
61897;SDS011;47850;50.274;18.908;2023-03-03T12:44:32;26.20;;;11.40;;
61897;SDS011;47850;50.274;18.908;2023-03-03T12:57:39;36.10;;;12.90;;
61897;SDS011;47850;50.274;18.908;2023-03-03T13:00:23;40.30;;;16.70;;
61897;SDS011;47850;50.274;18.908;2023-03-03T13:17:06;37.60;;;15.40;;
61897;SDS011;47850;50.274;18.908;2023-03-03T13:19:47;37.10;;;16.10;;
61897;SDS011;47850;50.274;18.908;2023-03-03T13:22:32;27.60;;;12.40;;
61897;SDS011;47850;50.274;18.908;2023-03-03T13:25:05;30.40;;;13.10;;
61897;SDS011;47850;50.274;18.908;2023-03-03T13:27:47;30.30;;;13.00;;
61897;SDS011;47850;50.274;18.908;2023-03-03T13:33:03;25.40;;;11.80;;
61897;SDS011;47850;50.274;18.908;2023-03-03T13:35:44;26.70;;;12.50;;
61897;SDS011;47850;50.274;18.908;2023-03-03T13:38:21;30.60;;;13.70;;
61897;SDS011;47850;50.274;18.908;2023-03-03T13:43:39;31.20;;;13.80;;
61897;SDS011;47850;50.274;18.908;2023-03-03T13:49:01;30.30;;;14.20;;
61897;SDS011;47850;50.274;18.908;2023-03-03T13:51:59;30.70;;;13.10;;
61897;SDS011;47850;50.274;18.908;2023-03-03T13:57:35;44.80;;;18.70;;
61897;SDS011;47850;50.274;18.908;2023-03-03T14:03:19;29.80;;;14.20;;
61897;SDS011;47850;50.274;18.908;2023-03-03T14:06:03;29.60;;;13.20;;
61897;SDS011;47850;50.274;18.908;2023-03-03T14:11:21;37.20;;;16.60;;
61897;SDS011;47850;50.274;18.908;2023-03-03T14:19:51;33.00;;;14.60;;
61897;SDS011;47850;50.274;18.908;2023-03-03T14:22:52;22.20;;;10.20;;
61897;SDS011;47850;50.274;18.908;2023-03-03T14:25:23;31.00;;;13.70;;
61897;SDS011;47850;50.274;18.908;2023-03-03T14:28:08;37.10;;;15.10;;
61897;SDS011;47850;50.274;18.908;2023-03-03T14:30:41;28.80;;;13.10;;
61897;SDS011;47850;50.274;18.908;2023-03-03T14:35:41;28.50;;;12.60;;
61897;SDS011;47850;50.274;18.908;2023-03-03T14:38:19;27.60;;;12.80;;
61897;SDS011;47850;50.274;18.908;2023-03-03T14:41:02;27.90;;;14.30;;
61897;SDS011;47850;50.274;18.908;2023-03-03T14:43:38;33.10;;;14.30;;
61897;SDS011;47850;50.274;18.908;2023-03-03T14:48:52;26.90;;;12.30;;
61897;SDS011;47850;50.274;18.908;2023-03-03T14:51:38;25.90;;;12.90;;
61897;SDS011;47850;50.274;18.908;2023-03-03T14:54:37;31.60;;;14.70;;
61897;SDS011;47850;50.274;18.908;2023-03-03T14:57:11;24.50;;;12.20;;
61897;SDS011;47850;50.274;18.908;2023-03-03T15:02:30;21.90;;;9.60;;
61897;SDS011;47850;50.274;18.908;2023-03-03T15:05:21;30.70;;;15.00;;
61897;SDS011;47850;50.274;18.908;2023-03-03T15:10:35;34.50;;;14.80;;
61897;SDS011;47850;50.274;18.908;2023-03-03T15:18:16;37.40;;;18.00;;
61897;SDS011;47850;50.274;18.908;2023-03-03T15:20:49;34.00;;;14.50;;
61897;SDS011;47850;50.274;18.908;2023-03-03T15:23:42;21.60;;;9.90;;
61897;SDS011;47850;50.274;18.908;2023-03-03T15:26:43;31.10;;;13.80;;
61897;SDS011;47850;50.274;18.908;2023-03-03T15:38:30;27.70;;;14.30;;
61897;SDS011;47850;50.274;18.908;2023-03-03T15:52:26;29.70;;;15.30;;
61897;SDS011;47850;50.274;18.908;2023-03-03T15:58:19;24.20;;;11.10;;
61897;SDS011;47850;50.274;18.908;2023-03-03T16:00:54;31.90;;;14.10;;
61897;SDS011;47850;50.274;18.908;2023-03-03T16:03:30;34.80;;;15.40;;
61897;SDS011;47850;50.274;18.908;2023-03-03T16:06:04;42.30;;;17.30;;
61897;SDS011;47850;50.274;18.908;2023-03-03T16:17:02;38.70;;;17.30;;
61897;SDS011;47850;50.274;18.908;2023-03-03T16:19:55;41.90;;;17.00;;
61897;SDS011;47850;50.274;18.908;2023-03-03T16:23:05;44.30;;;18.10;;
61897;SDS011;47850;50.274;18.908;2023-03-03T16:25:47;39.50;;;17.00;;
61897;SDS011;47850;50.274;18.908;2023-03-03T16:28:30;39.60;;;16.70;;
61897;SDS011;47850;50.274;18.908;2023-03-03T16:31:24;39.40;;;17.40;;
61897;SDS011;47850;50.274;18.908;2023-03-03T16:40:16;47.30;;;19.70;;
61897;SDS011;47850;50.274;18.908;2023-03-03T16:42:51;45.40;;;18.90;;
61897;SDS011;47850;50.274;18.908;2023-03-03T16:45:35;29.10;;;12.30;;
61897;SDS011;47850;50.274;18.908;2023-03-03T16:48:30;45.50;;;18.50;;
61897;SDS011;47850;50.274;18.908;2023-03-03T16:54:07;45.90;;;18.20;;
61897;SDS011;47850;50.274;18.908;2023-03-03T16:56:51;46.50;;;18.00;;
61897;SDS011;47850;50.274;18.908;2023-03-03T16:59:49;48.60;;;17.90;;
61897;SDS011;47850;50.274;18.908;2023-03-03T17:02:36;45.00;;;18.50;;
61897;SDS011;47850;50.274;18.908;2023-03-03T17:10:59;54.70;;;18.40;;
61897;SDS011;47850;50.274;18.908;2023-03-03T17:13:56;44.70;;;18.00;;
61897;SDS011;47850;50.274;18.908;2023-03-03T17:16:43;27.50;;;10.40;;
61897;SDS011;47850;50.274;18.908;2023-03-03T17:39:02;49.10;;;20.90;;
61897;SDS011;47850;50.274;18.908;2023-03-03T17:50:38;44.80;;;17.50;;
61897;SDS011;47850;50.274;18.908;2023-03-03T17:56:08;26.60;;;11.20;;
61897;SDS011;47850;50.274;18.908;2023-03-03T18:06:30;42.70;;;16.10;;
61897;SDS011;47850;50.274;18.908;2023-03-03T18:22:49;38.30;;;14.50;;
61897;SDS011;47850;50.274;18.908;2023-03-03T18:25:20;53.10;;;22.00;;
61897;SDS011;47850;50.274;18.908;2023-03-03T18:30:30;53.80;;;21.30;;
61897;SDS011;47850;50.274;18.908;2023-03-03T18:33:34;39.50;;;16.30;;
61897;SDS011;47850;50.274;18.908;2023-03-03T18:38:54;54.50;;;18.10;;
61897;SDS011;47850;50.274;18.908;2023-03-03T18:46:47;53.80;;;22.20;;
61897;SDS011;47850;50.274;18.908;2023-03-03T18:49:16;40.40;;;14.80;;
61897;SDS011;47850;50.274;18.908;2023-03-03T18:51:45;42.70;;;16.20;;
61897;SDS011;47850;50.274;18.908;2023-03-03T19:20:41;47.30;;;21.00;;
61897;SDS011;47850;50.274;18.908;2023-03-03T19:34:41;33.50;;;14.40;;
61897;SDS011;47850;50.274;18.908;2023-03-03T19:53:31;41.60;;;16.60;;
61897;SDS011;47850;50.274;18.908;2023-03-03T20:03:40;47.90;;;19.10;;
61897;SDS011;47850;50.274;18.908;2023-03-03T20:09:09;37.30;;;13.80;;
61897;SDS011;47850;50.274;18.908;2023-03-03T20:14:46;63.70;;;24.20;;
61897;SDS011;47850;50.274;18.908;2023-03-03T20:28:29;45.30;;;16.10;;
61897;SDS011;47850;50.274;18.908;2023-03-03T20:31:05;36.70;;;14.40;;
61897;SDS011;47850;50.274;18.908;2023-03-03T21:04:29;49.70;;;19.40;;
61897;SDS011;47850;50.274;18.908;2023-03-03T21:07:00;60.30;;;22.10;;
61897;SDS011;47850;50.274;18.908;2023-03-03T21:09:30;43.90;;;15.00;;
61897;SDS011;47850;50.274;18.908;2023-03-03T21:15:05;56.60;;;20.30;;
61897;SDS011;47850;50.274;18.908;2023-03-03T21:17:38;54.90;;;17.60;;
61897;SDS011;47850;50.274;18.908;2023-03-03T21:20:16;62.20;;;22.80;;
61897;SDS011;47850;50.274;18.908;2023-03-03T21:22:44;54.20;;;20.70;;
61897;SDS011;47850;50.274;18.908;2023-03-03T21:25:40;52.20;;;19.40;;
61897;SDS011;47850;50.274;18.908;2023-03-03T21:28:27;46.40;;;18.00;;
61897;SDS011;47850;50.274;18.908;2023-03-03T21:31:07;39.20;;;16.70;;
61897;SDS011;47850;50.274;18.908;2023-03-03T21:36:11;50.00;;;18.50;;
61897;SDS011;47850;50.274;18.908;2023-03-03T21:38:41;38.60;;;16.00;;
61897;SDS011;47850;50.274;18.908;2023-03-03T21:41:12;37.70;;;16.50;;
61897;SDS011;47850;50.274;18.908;2023-03-03T21:43:51;36.40;;;14.90;;
61897;SDS011;47850;50.274;18.908;2023-03-03T21:46:23;47.80;;;17.00;;
61897;SDS011;47850;50.274;18.908;2023-03-03T21:48:51;22.80;;;10.40;;
61897;SDS011;47850;50.274;18.908;2023-03-03T21:51:19;46.70;;;17.90;;
61897;SDS011;47850;50.274;18.908;2023-03-03T21:53:47;46.70;;;18.60;;
61897;SDS011;47850;50.274;18.908;2023-03-03T21:56:15;54.90;;;20.00;;
61897;SDS011;47850;50.274;18.908;2023-03-03T21:58:43;50.30;;;19.70;;
61897;SDS011;47850;50.274;18.908;2023-03-03T22:01:11;40.90;;;15.50;;
61897;SDS011;47850;50.274;18.908;2023-03-03T22:03:39;40.80;;;13.60;;
61897;SDS011;47850;50.274;18.908;2023-03-03T22:06:12;43.50;;;17.10;;
61897;SDS011;47850;50.274;18.908;2023-03-03T22:08:40;33.70;;;13.50;;
61897;SDS011;47850;50.274;18.908;2023-03-03T22:11:08;26.60;;;10.60;;
61897;SDS011;47850;50.274;18.908;2023-03-03T22:13:36;30.90;;;13.60;;
61897;SDS011;47850;50.274;18.908;2023-03-03T22:16:06;47.20;;;18.00;;
61897;SDS011;47850;50.274;18.908;2023-03-03T22:18:34;40.60;;;16.80;;
61897;SDS011;47850;50.274;18.908;2023-03-03T22:21:02;36.50;;;15.70;;
61897;SDS011;47850;50.274;18.908;2023-03-03T22:23:32;33.00;;;14.90;;